createdAt,value
2022-12-20T00:01:31.575Z,25.77
2022-12-20T00:04:03.021Z,22.75
2022-12-20T00:06:30.674Z,18.77
2022-12-20T00:09:01.733Z,17.23
2022-12-20T00:11:30.421Z,22.77
2022-12-20T00:13:58.924Z,42.35
2022-12-20T00:16:28.457Z,38.90
2022-12-20T00:19:03.784Z,38.13
2022-12-20T00:21:33.646Z,44.38
2022-12-20T00:24:01.271Z,48.83
2022-12-20T00:26:32.531Z,30.48
2022-12-20T00:29:01.616Z,22.77
2022-12-20T00:31:31.114Z,23.57
2022-12-20T00:34:00.409Z,22.65
2022-12-20T00:36:31.344Z,23.15
2022-12-20T00:39:00.295Z,28.70
2022-12-20T00:41:32.204Z,31.17
2022-12-20T00:44:00.788Z,39.58
2022-12-20T00:46:31.152Z,76.87
2022-12-20T00:49:00.273Z,74.58
2022-12-20T00:51:32.060Z,76.97
2022-12-20T00:53:59.704Z,51.23
2022-12-20T00:56:27.658Z,35.33
2022-12-20T00:58:59.779Z,40.23
2022-12-20T01:01:31.937Z,37.80
2022-12-20T01:04:01.005Z,33.80
2022-12-20T01:06:30.009Z,33.42
2022-12-20T01:08:58.256Z,34.20
2022-12-20T01:11:32.552Z,35.10
2022-12-20T01:14:05.182Z,40.17
2022-12-20T01:16:42.772Z,37.67
2022-12-20T01:19:14.909Z,31.23
2022-12-20T01:21:45.567Z,28.35
2022-12-20T01:24:17.053Z,40.10
2022-12-20T01:26:46.142Z,35.45
2022-12-20T01:29:15.530Z,24.25
2022-12-20T01:31:49.068Z,25.75
2022-12-20T01:34:19.906Z,26.90
2022-12-20T01:36:49.331Z,26.40
2022-12-20T01:39:18.040Z,24.82
2022-12-20T01:41:48.502Z,24.70
2022-12-20T01:44:24.960Z,22.13
2022-12-20T01:46:55.869Z,21.77
2022-12-20T01:49:38.569Z,24.87
2022-12-20T01:52:29.856Z,23.07
2022-12-20T01:55:08.091Z,18.17
2022-12-20T01:57:56.527Z,14.80
2022-12-20T02:00:24.754Z,14.23
2022-12-20T02:02:52.530Z,22.77
2022-12-20T02:05:23.544Z,21.70
2022-12-20T02:07:54.988Z,20.50
2022-12-20T02:10:27.537Z,25.70
2022-12-20T02:13:00.639Z,15.55
2022-12-20T02:15:45.962Z,17.00
2022-12-20T02:18:44.440Z,19.23
2022-12-20T02:21:26.304Z,15.88
2022-12-20T02:24:23.677Z,17.05
2022-12-20T02:27:14.815Z,18.02
2022-12-20T02:30:12.685Z,28.83
2022-12-20T02:33:12.784Z,31.17
2022-12-20T02:35:42.338Z,26.23
2022-12-20T02:38:31.026Z,27.45
2022-12-20T02:41:04.287Z,23.07
2022-12-20T02:43:54.196Z,20.12
2022-12-20T02:46:24.175Z,14.33
2022-12-20T02:48:54.752Z,11.50
2022-12-20T02:51:24.299Z,9.83
2022-12-20T02:53:52.392Z,9.03
2022-12-20T02:56:32.131Z,9.50
2022-12-20T02:59:07.967Z,11.00
2022-12-20T03:01:52.153Z,8.48
2022-12-20T03:04:25.262Z,11.25
2022-12-20T03:07:06.757Z,20.48
2022-12-20T03:09:41.496Z,22.55
2022-12-20T03:12:11.525Z,14.03
2022-12-20T03:14:40.287Z,9.30
2022-12-20T03:17:09.674Z,7.37
2022-12-20T03:19:39.107Z,7.67
2022-12-20T03:22:07.281Z,10.60
2022-12-20T03:24:34.833Z,8.60
2022-12-20T03:27:04.263Z,9.95
2022-12-20T03:29:32.171Z,10.25
2022-12-20T03:32:00.280Z,11.97
2022-12-20T03:34:28.123Z,11.45
2022-12-20T03:36:56.078Z,11.78
2022-12-20T03:39:24.062Z,39.00
2022-12-20T03:41:52.812Z,16.23
2022-12-20T03:44:20.823Z,12.73
2022-12-20T03:46:50.011Z,13.60
2022-12-20T03:49:18.153Z,13.08
2022-12-20T03:51:47.471Z,15.13
2022-12-20T03:54:15.449Z,16.20
2022-12-20T03:56:51.645Z,17.40
2022-12-20T03:59:19.958Z,18.32
2022-12-20T04:01:48.060Z,14.63
2022-12-20T04:04:16.330Z,17.57
2022-12-20T04:06:44.912Z,17.57
2022-12-20T04:09:12.792Z,15.88
2022-12-20T04:11:44.401Z,21.50
2022-12-20T04:14:14.128Z,21.90
2022-12-20T04:16:42.799Z,17.57
2022-12-20T04:19:11.578Z,11.55
2022-12-20T04:21:41.848Z,8.60
2022-12-20T04:24:10.834Z,6.70
2022-12-20T04:26:43.165Z,5.65
2022-12-20T04:29:11.276Z,6.03
2022-12-20T04:31:39.799Z,14.30
2022-12-20T04:34:07.818Z,9.15
2022-12-20T04:36:35.867Z,8.30
2022-12-20T04:39:05.529Z,8.30
2022-12-20T04:41:34.857Z,8.60
2022-12-20T04:44:04.662Z,8.45
2022-12-20T04:46:37.286Z,8.33
2022-12-20T04:49:07.028Z,10.08
2022-12-20T04:51:35.125Z,9.35
2022-12-20T04:54:03.031Z,10.25
2022-12-20T04:56:32.815Z,10.88
2022-12-20T04:59:02.820Z,12.98
2022-12-20T05:01:32.696Z,12.50
2022-12-20T05:04:00.540Z,10.60
2022-12-20T05:06:30.027Z,10.05
2022-12-20T05:08:57.958Z,10.30
2022-12-20T05:11:25.766Z,13.93
2022-12-20T05:13:53.399Z,10.50
2022-12-20T05:16:21.553Z,9.08
2022-12-20T05:18:49.979Z,7.97
2022-12-20T05:21:36.822Z,9.05
2022-12-20T05:24:24.906Z,9.55
2022-12-20T05:26:54.549Z,8.90
2022-12-20T05:29:22.246Z,10.25
2022-12-20T05:31:50.400Z,11.28
2022-12-20T05:34:18.586Z,10.50
2022-12-20T05:36:47.903Z,13.00
2022-12-20T05:39:15.708Z,20.32
2022-12-20T05:41:43.525Z,26.97
2022-12-20T05:44:11.566Z,30.20
2022-12-20T05:46:41.185Z,33.08
2022-12-20T05:49:10.634Z,30.05
2022-12-20T05:51:38.463Z,26.73
2022-12-20T05:54:20.832Z,24.32
2022-12-20T05:56:50.519Z,16.00
2022-12-20T05:59:20.453Z,14.55
2022-12-20T06:01:48.021Z,12.82
2022-12-20T06:04:16.125Z,12.18
2022-12-20T06:06:44.942Z,15.18
2022-12-20T06:09:12.755Z,14.25
2022-12-20T06:11:42.359Z,17.87
2022-12-20T06:14:11.828Z,14.43
2022-12-20T06:16:41.469Z,13.60
2022-12-20T06:19:14.667Z,14.47
2022-12-20T06:21:41.792Z,11.93
2022-12-20T06:24:11.542Z,21.97
2022-12-20T06:26:41.151Z,22.77
2022-12-20T06:29:12.208Z,29.98
2022-12-20T06:31:44.408Z,31.97
2022-12-20T06:34:12.004Z,37.03
2022-12-20T06:36:41.629Z,46.85
2022-12-20T06:39:11.167Z,52.15
2022-12-20T06:41:41.055Z,63.70
2022-12-20T06:44:08.790Z,58.42
2022-12-20T06:46:36.451Z,49.77
2022-12-20T06:49:04.410Z,41.13
2022-12-20T06:51:32.907Z,38.70
2022-12-20T06:54:03.333Z,44.10
2022-12-20T06:56:39.258Z,36.48
2022-12-20T06:59:02.242Z,33.85
2022-12-20T07:01:29.891Z,27.58
2022-12-20T07:03:57.832Z,29.98
2022-12-20T07:06:26.512Z,34.90
2022-12-20T07:08:54.243Z,24.77
2022-12-20T07:11:22.367Z,25.68
2022-12-20T07:13:53.596Z,25.00
2022-12-20T07:16:21.343Z,27.55
2022-12-20T07:18:53.960Z,24.05
2022-12-20T07:21:21.911Z,22.95
2022-12-20T07:23:49.252Z,22.27
2022-12-20T07:26:16.882Z,21.60
2022-12-20T07:28:44.670Z,20.57
2022-12-20T07:31:12.496Z,22.40
2022-12-20T07:33:40.149Z,22.42
2022-12-20T07:36:13.800Z,22.40
2022-12-20T07:41:11.687Z,23.50
2022-12-20T07:43:39.768Z,25.92
2022-12-20T07:46:08.383Z,22.73
2022-12-20T07:48:36.388Z,18.15
2022-12-20T07:51:12.306Z,18.23
2022-12-20T07:53:47.843Z,18.75
2022-12-20T07:56:16.529Z,19.27
2022-12-20T07:58:44.855Z,21.33
2022-12-20T08:01:13.112Z,22.27
2022-12-20T08:03:45.852Z,21.93
2022-12-20T08:06:15.498Z,17.10
2022-12-20T08:08:47.666Z,14.68
2022-12-20T08:11:16.786Z,13.28
2022-12-20T08:13:46.794Z,13.72
2022-12-20T08:16:14.442Z,12.20
2022-12-20T08:18:42.401Z,13.00
2022-12-20T08:21:11.974Z,13.03
2022-12-20T08:23:40.048Z,12.43
2022-12-20T08:26:08.124Z,13.20
2022-12-20T08:28:36.279Z,16.55
2022-12-20T08:31:08.013Z,17.55
2022-12-20T08:33:37.923Z,13.60
2022-12-20T08:36:09.898Z,14.50
2022-12-20T08:38:38.145Z,19.02
2022-12-20T08:41:10.350Z,22.90
2022-12-20T08:43:39.629Z,14.03
2022-12-20T08:46:10.390Z,12.70
2022-12-20T08:48:38.243Z,13.43
2022-12-20T08:51:09.092Z,16.40
2022-12-20T08:53:37.980Z,16.25
2022-12-20T08:56:15.758Z,16.85
2022-12-20T08:58:44.906Z,17.67
2022-12-20T09:01:16.906Z,18.65
2022-12-20T09:03:45.837Z,22.05
2022-12-20T09:06:19.327Z,19.57
2022-12-20T09:08:48.315Z,18.27
2022-12-20T09:11:20.367Z,20.27
2022-12-20T09:13:51.155Z,20.97
2022-12-20T09:16:21.914Z,18.55
2022-12-20T09:18:52.135Z,19.20
2022-12-20T09:21:20.258Z,21.55
2022-12-20T09:23:53.939Z,23.47
2022-12-20T09:26:23.236Z,25.48
2022-12-20T09:28:51.938Z,24.72
2022-12-20T09:31:24.016Z,19.77
2022-12-20T09:33:54.989Z,18.50
2022-12-20T09:36:26.195Z,16.55
2022-12-20T09:38:54.972Z,18.42
2022-12-20T09:41:42.594Z,19.67
2022-12-20T09:44:21.831Z,18.95
2022-12-20T09:47:03.535Z,20.57
2022-12-20T09:49:33.656Z,17.65
2022-12-20T09:52:19.390Z,18.90
2022-12-20T09:55:22.295Z,19.48
2022-12-20T09:58:19.646Z,17.35
2022-12-20T10:00:53.777Z,19.02
2022-12-20T10:03:26.516Z,18.07
2022-12-20T10:06:02.214Z,19.15
2022-12-20T10:08:54.106Z,19.23
2022-12-20T10:11:42.050Z,17.98
2022-12-20T10:14:33.980Z,18.52
2022-12-20T10:17:26.194Z,18.02
2022-12-20T10:20:34.008Z,19.25
2022-12-20T10:23:39.187Z,19.50
2022-12-20T10:26:12.919Z,21.20
2022-12-20T10:28:40.831Z,22.25
2022-12-20T10:31:13.510Z,21.80
2022-12-20T10:33:42.158Z,23.73
2022-12-20T10:36:31.756Z,21.20
2022-12-20T10:39:02.710Z,19.95
2022-12-20T10:41:45.067Z,21.48
2022-12-20T10:44:25.878Z,22.55
2022-12-20T10:46:59.615Z,23.77
2022-12-20T10:52:13.595Z,19.73
2022-12-20T10:54:45.256Z,18.82
2022-12-20T10:57:28.491Z,18.82
2022-12-20T11:00:05.902Z,22.07
2022-12-20T11:02:42.300Z,19.87
2022-12-20T11:05:17.014Z,23.62
2022-12-20T11:08:34.681Z,21.75
2022-12-20T11:10:37.559Z,22.05
2022-12-20T11:13:06.058Z,22.00
2022-12-20T11:15:36.149Z,20.05
2022-12-20T11:18:14.880Z,20.30
2022-12-20T11:21:16.975Z,20.10
2022-12-20T11:23:47.844Z,20.80
2022-12-20T11:26:58.881Z,20.82
2022-12-20T11:29:44.487Z,20.48
2022-12-20T11:32:48.338Z,19.77
2022-12-20T11:35:38.823Z,18.77
2022-12-20T11:41:04.696Z,19.95
2022-12-20T11:44:27.770Z,21.82
2022-12-20T11:47:06.519Z,20.75
2022-12-20T11:50:15.018Z,22.32
2022-12-20T11:52:53.820Z,22.90
2022-12-20T11:55:32.595Z,22.65
2022-12-20T11:58:23.756Z,23.32
2022-12-20T12:00:39.915Z,22.95
2022-12-20T12:03:28.034Z,23.85
2022-12-20T12:06:18.293Z,25.75
2022-12-20T12:08:59.812Z,25.50
2022-12-20T12:12:05.243Z,26.10
2022-12-20T12:14:04.723Z,25.62
2022-12-20T12:16:39.718Z,27.20
2022-12-20T12:19:12.944Z,28.75
2022-12-20T12:21:46.132Z,34.18
2022-12-20T12:24:30.021Z,30.30
2022-12-20T12:26:59.507Z,30.45
2022-12-20T12:29:29.841Z,29.23
2022-12-20T12:32:08.460Z,26.77
2022-12-20T12:34:59.589Z,23.90
2022-12-20T12:37:55.780Z,22.65
2022-12-20T12:41:03.985Z,23.77
2022-12-20T12:43:55.907Z,22.48
2022-12-20T12:46:28.211Z,20.52
2022-12-20T12:49:10.644Z,19.92
2022-12-20T12:51:44.709Z,20.77
2022-12-20T12:54:25.954Z,21.87
2022-12-20T12:57:13.657Z,18.40
2022-12-20T12:59:48.048Z,20.37
2022-12-20T13:02:21.422Z,17.60
2022-12-20T13:07:45.385Z,16.40
2022-12-20T13:10:23.029Z,17.02
2022-12-20T13:12:58.376Z,17.92
2022-12-20T13:15:32.147Z,22.82
2022-12-20T13:20:40.101Z,17.30
2022-12-20T13:23:17.653Z,15.83
2022-12-20T13:25:53.846Z,14.98
2022-12-20T13:28:30.007Z,15.98
2022-12-20T13:31:11.893Z,21.45
2022-12-20T13:33:43.627Z,27.60
2022-12-20T13:36:25.787Z,21.95
2022-12-20T13:38:56.560Z,18.70
2022-12-20T13:41:47.646Z,19.70
2022-12-20T13:44:20.696Z,17.55
2022-12-20T13:47:09.543Z,16.97
2022-12-20T13:49:42.627Z,17.62
2022-12-20T13:52:32.809Z,19.42
2022-12-20T13:55:05.857Z,23.32
2022-12-20T13:57:44.443Z,21.90
2022-12-20T14:00:18.805Z,39.00
2022-12-20T14:02:47.071Z,19.90
2022-12-20T14:05:24.932Z,21.68
2022-12-20T14:08:03.733Z,24.35
2022-12-20T14:10:33.597Z,23.62
2022-12-20T14:13:01.725Z,22.40
2022-12-20T14:15:35.423Z,24.00
2022-12-20T14:20:37.430Z,34.80
2022-12-20T14:23:15.984Z,45.90
2022-12-20T14:25:51.874Z,43.58
2022-12-20T14:28:39.123Z,39.13
2022-12-20T14:31:23.540Z,32.00
2022-12-20T14:33:52.054Z,32.98
2022-12-20T14:36:21.285Z,41.88
2022-12-20T14:38:52.024Z,46.10
2022-12-20T14:41:37.023Z,47.95
2022-12-20T14:44:20.902Z,43.85
2022-12-20T14:46:56.530Z,48.60
2022-12-20T14:49:30.992Z,48.52
2022-12-20T14:52:31.077Z,32.48
2022-12-20T14:55:21.886Z,47.80
2022-12-20T14:57:55.804Z,34.43
2022-12-20T15:00:28.830Z,35.43
2022-12-20T15:03:05.004Z,34.80
2022-12-20T15:05:41.348Z,33.18
2022-12-20T15:08:31.563Z,66.00
2022-12-20T15:11:10.458Z,66.28
2022-12-20T15:13:46.289Z,44.60
2022-12-20T15:16:23.847Z,50.00
2022-12-20T15:18:58.603Z,53.87
2022-12-20T15:21:33.219Z,57.25
2022-12-20T15:24:08.514Z,74.27
2022-12-20T15:26:37.072Z,68.85
2022-12-20T15:29:06.048Z,60.98
2022-12-20T15:31:36.317Z,60.45
2022-12-20T15:34:13.864Z,65.40
2022-12-20T15:36:41.628Z,59.33
2022-12-20T15:39:13.839Z,60.17
2022-12-20T15:41:46.721Z,58.50
2022-12-20T15:44:26.929Z,59.15
2022-12-20T15:46:54.728Z,66.02
2022-12-20T15:49:29.559Z,71.45
2022-12-20T15:51:57.674Z,71.12
2022-12-20T15:54:29.553Z,107.07
2022-12-20T15:57:01.962Z,79.42
2022-12-20T16:02:00.770Z,79.53
2022-12-20T16:04:28.519Z,74.12
2022-12-20T16:06:56.208Z,66.60
2022-12-20T16:09:25.506Z,64.20
2022-12-20T16:11:53.119Z,62.67
2022-12-20T16:14:21.416Z,58.10
2022-12-20T16:16:49.805Z,51.25
2022-12-20T16:19:18.782Z,60.20
2022-12-20T16:21:50.699Z,67.95
2022-12-20T16:24:20.401Z,73.72
2022-12-20T16:26:51.159Z,65.52
2022-12-20T16:29:19.035Z,70.70
2022-12-20T16:31:46.371Z,69.47
2022-12-20T16:34:17.056Z,70.28
2022-12-20T16:36:46.007Z,74.22
2022-12-20T16:39:13.928Z,74.90
2022-12-20T16:41:43.726Z,77.25
2022-12-20T16:44:16.634Z,62.83
2022-12-20T16:46:45.086Z,43.15
2022-12-20T16:49:19.971Z,41.70
2022-12-20T16:51:46.060Z,44.73
2022-12-20T16:54:22.446Z,50.33
2022-12-20T16:56:54.035Z,56.65
2022-12-20T16:59:24.757Z,60.92
2022-12-20T17:01:54.953Z,64.55
2022-12-20T17:04:24.028Z,72.62
2022-12-20T17:06:51.647Z,81.47
2022-12-20T17:09:20.052Z,77.82
2022-12-20T17:11:49.441Z,62.93
2022-12-20T17:14:19.115Z,61.53
2022-12-20T17:16:46.997Z,61.30
2022-12-20T17:19:14.464Z,57.48
2022-12-20T17:24:34.719Z,59.05
2022-12-20T17:27:02.672Z,60.63
2022-12-20T17:29:30.456Z,61.85
2022-12-20T17:31:58.154Z,68.85
2022-12-20T17:34:30.440Z,63.05
2022-12-20T17:36:58.697Z,67.30
2022-12-20T17:39:26.511Z,54.58
2022-12-20T17:41:55.325Z,53.70
2022-12-20T17:44:26.391Z,52.33
2022-12-20T17:46:55.977Z,50.30
2022-12-20T17:49:24.415Z,48.30
2022-12-20T17:51:52.100Z,45.28
2022-12-20T17:54:25.797Z,46.08
2022-12-20T17:56:53.652Z,46.50
2022-12-20T17:59:22.021Z,51.58
2022-12-20T18:01:49.872Z,63.70
2022-12-20T18:04:18.028Z,52.20
2022-12-20T18:06:46.644Z,62.27
2022-12-20T18:09:18.283Z,71.80
2022-12-20T18:11:47.289Z,80.05
2022-12-20T18:14:15.438Z,76.47
2022-12-20T18:16:43.713Z,72.55
2022-12-20T18:19:18.491Z,77.50
2022-12-20T18:21:46.334Z,77.25
2022-12-20T18:24:15.834Z,108.70
2022-12-20T18:26:44.517Z,97.53
2022-12-20T18:29:12.215Z,97.02
2022-12-20T18:31:40.046Z,82.80
2022-12-20T18:34:07.817Z,86.20
2022-12-20T18:36:37.327Z,100.22
2022-12-20T18:39:07.602Z,82.88
2022-12-20T18:41:35.419Z,65.28
2022-12-20T18:44:06.401Z,64.15
2022-12-20T18:46:34.161Z,63.83
2022-12-20T18:49:03.373Z,55.00
2022-12-20T18:51:37.853Z,62.90
2022-12-20T18:54:07.982Z,62.75
2022-12-20T18:56:37.857Z,61.73
2022-12-20T18:59:12.106Z,57.98
2022-12-20T19:01:38.415Z,63.13
2022-12-20T19:04:07.673Z,68.65
2022-12-20T19:06:36.982Z,69.85
2022-12-20T19:09:10.038Z,75.85
2022-12-20T19:11:37.875Z,80.43
2022-12-20T19:14:07.081Z,83.12
2022-12-20T19:16:35.493Z,70.08
2022-12-20T19:19:04.042Z,70.87
2022-12-20T19:21:34.732Z,68.83
2022-12-20T19:24:06.345Z,77.40
2022-12-20T19:26:36.185Z,73.05
2022-12-20T19:29:06.529Z,72.10
2022-12-20T19:31:36.975Z,74.12
2022-12-20T19:34:09.786Z,74.30
2022-12-20T19:36:41.713Z,72.10
2022-12-20T19:39:22.775Z,80.45
2022-12-20T19:42:21.801Z,75.57
2022-12-20T19:44:21.146Z,80.47
2022-12-20T19:46:48.559Z,127.15
2022-12-20T19:49:16.462Z,114.50
2022-12-20T19:51:44.221Z,90.40
2022-12-20T19:54:11.905Z,90.07
2022-12-20T19:56:39.744Z,96.45
2022-12-20T19:59:11.419Z,93.65
2022-12-20T20:01:39.260Z,97.20
2022-12-20T20:04:08.944Z,111.15
2022-12-20T20:06:36.502Z,109.22
2022-12-20T20:09:04.144Z,125.67
2022-12-20T20:11:31.832Z,121.05
2022-12-20T20:14:01.381Z,111.03
2022-12-20T20:16:29.175Z,107.15
2022-12-20T20:18:57.432Z,94.85
2022-12-20T20:21:25.377Z,88.97
2022-12-20T20:23:54.419Z,91.32
2022-12-20T20:26:26.147Z,98.70
2022-12-20T20:28:53.927Z,106.58
2022-12-20T20:31:22.218Z,107.72
2022-12-20T20:33:50.347Z,106.52
2022-12-20T20:36:21.655Z,103.97
2022-12-20T20:38:51.787Z,92.40
2022-12-20T20:41:19.691Z,84.05
2022-12-20T20:43:47.521Z,78.67
2022-12-20T20:46:17.238Z,78.25
2022-12-20T20:48:45.799Z,111.20
2022-12-20T20:51:13.815Z,97.22
2022-12-20T20:53:41.873Z,105.80
2022-12-20T20:56:10.220Z,77.97
2022-12-20T20:58:38.341Z,76.80
2022-12-20T21:01:08.855Z,83.47
2022-12-20T21:03:37.630Z,85.05
2022-12-20T21:06:39.194Z,82.30
2022-12-20T21:08:36.935Z,80.07
2022-12-20T21:11:07.002Z,92.12
2022-12-20T21:13:34.927Z,103.17
2022-12-20T21:16:13.257Z,99.25
2022-12-20T21:18:41.189Z,106.58
2022-12-20T21:21:11.964Z,107.50
2022-12-20T21:23:45.783Z,102.60
2022-12-20T21:26:15.461Z,104.97
2022-12-20T21:28:43.587Z,103.72
2022-12-20T21:31:15.836Z,115.12
2022-12-20T21:33:47.483Z,108.52
2022-12-20T21:36:18.561Z,109.52
2022-12-20T21:38:55.873Z,120.37
2022-12-20T21:41:27.404Z,114.10
2022-12-20T21:43:57.697Z,113.08
2022-12-20T21:46:28.657Z,111.40
2022-12-20T21:48:56.235Z,108.95
2022-12-20T21:51:25.920Z,108.92
2022-12-20T21:53:57.538Z,103.50
2022-12-20T21:56:27.624Z,97.17
2022-12-20T21:58:55.601Z,89.58
2022-12-20T22:01:26.202Z,91.45
2022-12-20T22:04:01.127Z,95.40
2022-12-20T22:06:29.121Z,81.22
2022-12-20T22:09:00.104Z,74.10
2022-12-20T22:11:28.718Z,94.45
2022-12-20T22:13:56.743Z,89.80
2022-12-20T22:16:29.573Z,100.80
2022-12-20T22:18:58.710Z,99.70
2022-12-20T22:21:29.975Z,102.82
2022-12-20T22:23:59.442Z,94.13
2022-12-20T22:26:30.360Z,89.85
2022-12-20T22:29:04.768Z,84.87
2022-12-20T22:31:33.196Z,77.65
2022-12-20T22:34:01.408Z,83.58
2022-12-20T22:36:29.068Z,78.65
2022-12-20T22:38:57.907Z,85.35
2022-12-20T22:41:29.351Z,76.37
2022-12-20T22:44:00.212Z,74.95
2022-12-20T22:46:28.900Z,82.12
2022-12-20T22:49:00.812Z,75.40
2022-12-20T22:51:33.992Z,81.82
2022-12-20T22:54:01.914Z,79.40
2022-12-20T22:56:29.520Z,81.97
2022-12-20T22:58:57.287Z,75.80
2022-12-20T23:01:25.525Z,75.17
2022-12-20T23:03:53.674Z,73.97
2022-12-20T23:06:21.923Z,76.22
2022-12-20T23:08:49.864Z,70.40
2022-12-20T23:11:42.362Z,70.30
2022-12-20T23:14:37.641Z,78.80
2022-12-20T23:17:08.625Z,81.47
2022-12-20T23:19:55.074Z,74.62
2022-12-20T23:22:41.332Z,80.97
2022-12-20T23:25:16.086Z,77.32
2022-12-20T23:27:46.818Z,55.98
2022-12-20T23:30:17.950Z,47.53
2022-12-20T23:32:46.155Z,42.45
2022-12-20T23:35:17.653Z,44.00
2022-12-20T23:37:45.802Z,43.13
2022-12-20T23:40:15.825Z,47.30
2022-12-20T23:42:44.608Z,60.33
2022-12-20T23:45:12.735Z,63.10
2022-12-20T23:47:40.092Z,72.92
2022-12-20T23:50:09.037Z,69.37
2022-12-20T23:52:36.589Z,62.40
2022-12-20T23:55:05.709Z,64.45
2022-12-20T23:57:33.487Z,63.13
